Time;durP1;ratioP1;P1;durP2;ratioP2;P2;SDS_P1;SDS_P2;PMS_P1;PMS_P2;Temp;Humidity;BMP_temperature;BMP_pressure;BME280_temperature;BME280_humidity;BME280_pressure;Samples;Min_cycle;Max_cycle;Signal;HPM_P1;HPM_P2
2022/08/13 00:02:18;;;;;;;3.05;1.65;;;;;;;-148.88;43.28;74993.25;4994140;28;20393;-74
2022/08/13 00:05:01;;;;;;;5.22;1.42;;;;;;;-148.88;43.20;75003.41;4993943;28;20026;-74
2022/08/13 00:07:27;;;;;;;3.25;1.65;;;;;;;-148.88;43.15;75001.38;4993922;28;20504;-74
2022/08/13 00:09:53;;;;;;;4.72;1.83;;;;;;;-148.88;43.20;75005.44;4993582;28;20420;-74
2022/08/13 00:15:13;;;;;;;3.53;1.60;;;;;;;-148.88;43.84;75009.50;4993806;28;20069;-74
2022/08/13 00:17:41;;;;;;;4.05;1.75;;;;;;;-148.88;44.27;75009.50;4993762;28;20080;-74
2022/08/13 00:20:07;;;;;;;2.83;1.70;;;;;;;-148.88;43.77;75013.56;4993706;28;20037;-74
2022/08/13 00:22:33;;;;;;;3.33;1.80;;;;;;;-148.88;44.05;75025.75;4993518;28;20034;-74
2022/08/13 00:25:00;;;;;;;2.80;1.45;;;;;;;-148.88;43.92;75029.81;4993027;28;20025;-74
2022/08/13 00:27:27;;;;;;;2.55;1.63;;;;;;;-148.88;44.04;75029.81;4993657;28;20473;-74
2022/08/13 00:29:56;;;;;;;2.80;1.75;;;;;;;-148.88;44.11;75046.06;5011911;23;20129;-86
2022/08/13 00:32:29;;;;;;;3.33;1.80;;;;;;;-148.88;44.49;75082.63;5002024;28;20057;-86
2022/08/13 00:35:01;;;;;;;3.22;1.83;;;;;;;-148.88;45.30;75070.44;4995728;28;20054;-86
2022/08/13 00:37:28;;;;;;;2.42;1.80;;;;;;;-148.88;44.89;75068.41;4995493;28;20499;-86
2022/08/13 00:39:53;;;;;;;4.32;1.83;;;;;;;-148.88;45.21;75064.34;4975333;28;20030;-86
2022/08/13 00:42:25;;;;;;;4.63;1.70;;;;;;;-148.88;45.29;75068.41;5008423;23;20054;-86
2022/08/13 00:44:50;;;;;;;2.70;1.77;;;;;;;-148.88;45.16;75068.41;4992568;28;20030;-87
2022/08/13 00:50:01;;;;;;;2.83;1.90;;;;;;;-148.88;45.29;75076.53;4993807;28;20085;-87
2022/08/13 00:52:32;;;;;;;2.67;1.70;;;;;;;-148.88;45.49;75084.66;4992262;28;20023;-87
2022/08/13 00:55:00;;;;;;;3.47;1.65;;;;;;;-148.88;45.16;75090.72;4992448;28;20114;-86
2022/08/13 00:57:28;;;;;;;3.75;1.80;;;;;;;-148.88;45.43;75094.81;4993568;28;20041;-87
2022/08/13 00:59:54;;;;;;;2.97;1.60;;;;;;;-148.88;45.41;75086.69;4992351;28;20050;-87
2022/08/13 01:02:21;;;;;;;3.22;1.60;;;;;;;-148.88;45.14;75098.84;4992345;28;20026;-86
2022/08/13 01:04:46;;;;;;;4.22;1.50;;;;;;;-148.88;45.71;75100.88;4993489;28;20022;-86
2022/08/13 01:07:15;;;;;;;2.13;1.40;;;;;;;-148.88;45.51;75125.25;4992504;28;20030;-86
2022/08/13 01:09:54;;;;;;;3.92;1.55;;;;;;;-148.88;46.59;75149.63;4997192;28;20032;-86
2022/08/13 01:12:21;;;;;;;3.97;1.30;;;;;;;-148.88;46.46;75151.66;5003803;28;20023;-86
2022/08/13 01:14:48;;;;;;;2.15;1.45;;;;;;;-148.88;46.40;75139.47;5000634;28;20022;-86
2022/08/13 01:17:22;;;;;;;3.38;1.30;;;;;;;-148.88;46.00;75133.38;4997293;28;20022;-86
2022/08/13 01:19:49;;;;;;;2.05;1.10;;;;;;;-148.88;46.13;75137.44;4992339;28;20034;-86
2022/08/13 01:22:16;;;;;;;2.75;1.27;;;;;;;-148.88;46.30;75141.50;4991856;28;20113;-86
2022/08/13 01:24:42;;;;;;;2.00;1.40;;;;;;;-148.88;46.58;75147.59;4991946;28;20030;-86
2022/08/13 01:27:09;;;;;;;5.10;1.50;;;;;;;-148.88;46.60;75147.59;4992631;28;20030;-86
2022/08/13 01:29:35;;;;;;;2.50;1.40;;;;;;;-148.88;46.56;75143.53;4992402;28;20029;-86
2022/08/13 01:32:01;;;;;;;3.38;1.63;;;;;;;-148.88;46.44;75151.66;4991683;28;20018;-87
2022/08/13 01:34:30;;;;;;;2.70;1.60;;;;;;;-148.88;46.33;75149.63;4991745;28;20527;-87
2022/08/13 01:36:56;;;;;;;4.28;1.50;;;;;;;-148.88;46.75;75161.81;4993895;28;20022;-86
2022/08/13 01:39:21;;;;;;;3.30;1.50;;;;;;;-148.88;46.65;75157.75;4996602;28;20048;-87
2022/08/13 01:41:48;;;;;;;4.93;1.50;;;;;;;-148.88;47.01;75161.81;4995417;28;20084;-86
2022/08/13 01:44:15;;;;;;;3.10;1.50;;;;;;;-148.88;47.39;75165.88;4995401;28;20393;-86
2022/08/13 01:52:10;;;;;;;3.08;1.40;;;;;;;-148.88;47.52;75169.94;4996762;28;20053;-86
2022/08/13 01:54:36;;;;;;;2.88;1.60;;;;;;;-148.88;47.66;75190.25;4995975;28;20026;-86
2022/08/13 01:57:04;;;;;;;2.42;1.20;;;;;;;-148.88;48.17;75194.31;4996159;28;20027;-86
2022/08/13 01:59:34;;;;;;;3.28;1.38;;;;;;;-148.88;47.66;75202.44;4995799;28;20026;-85
2022/08/13 02:02:01;;;;;;;2.40;1.70;;;;;;;-148.88;48.20;75224.78;4994821;28;20029;-87
2022/08/13 02:04:27;;;;;;;5.07;1.90;;;;;;;-148.88;47.44;75212.59;4994662;28;20547;-87
2022/08/13 02:06:53;;;;;;;4.15;1.50;;;;;;;-148.88;47.81;75230.88;4995744;28;20069;-87
2022/08/13 02:09:18;;;;;;;2.75;1.42;;;;;;;-148.88;47.87;75228.84;4994797;28;20382;-84
2022/08/13 02:11:44;;;;;;;2.63;1.58;;;;;;;-148.88;47.99;75226.81;4994728;28;20080;-86
2022/08/13 02:14:11;;;;;;;3.75;1.67;;;;;;;-148.88;47.91;75220.72;4996042;28;20018;-87
2022/08/13 02:16:37;;;;;;;7.05;1.40;;;;;;;-148.88;48.02;75226.81;4995136;28;20322;-86
2022/08/13 02:19:04;;;;;;;2.00;1.13;;;;;;;-148.88;48.20;75224.78;4994594;28;20548;-86
2022/08/13 02:21:38;;;;;;;6.57;1.90;;;;;;;-148.88;48.72;75216.66;4995970;28;20030;-86
2022/08/13 02:24:13;;;;;;;4.18;1.67;;;;;;;-148.88;48.52;75218.69;4995328;28;20073;-86
2022/08/13 02:26:42;;;;;;;2.42;1.40;;;;;;;-148.88;48.01;75224.78;4995870;28;20022;-87
2022/08/13 02:29:09;;;;;;;5.63;1.60;;;;;;;-148.88;48.49;75249.16;4994361;28;20026;-86
2022/08/13 02:31:35;;;;;;;2.70;1.63;;;;;;;-148.88;49.73;75257.28;4994647;28;20030;-87
2022/08/13 02:34:01;;;;;;;3.15;1.55;;;;;;;-148.88;49.92;75243.06;4994357;28;20449;-86
2022/08/13 02:36:27;;;;;;;3.55;1.30;;;;;;;-148.88;49.85;75249.16;4994439;28;20072;-86
2022/08/13 02:39:11;;;;;;;3.83;1.40;;;;;;;-148.88;50.25;75243.06;4994182;28;20030;-87
2022/08/13 02:41:42;;;;;;;2.25;1.30;;;;;;;-148.88;50.09;75241.03;4994044;28;20113;-86
2022/08/13 02:44:16;;;;;;;2.03;1.52;;;;;;;-148.88;50.08;75245.09;4994197;28;20069;-86
2022/08/13 02:46:45;;;;;;;3.45;1.60;;;;;;;-148.88;49.90;75253.22;4994105;28;20056;-87
2022/08/13 02:49:11;;;;;;;3.72;2.08;;;;;;;-148.88;50.18;75251.19;4993337;28;20054;-86
2022/08/13 02:51:38;;;;;;;2.95;1.83;;;;;;;-148.88;49.98;75249.16;4994064;28;20022;-86
2022/08/13 02:54:06;;;;;;;2.75;1.70;;;;;;;-148.88;50.03;75253.22;4993900;28;20026;-86
2022/08/13 02:56:32;;;;;;;3.30;1.83;;;;;;;-148.88;50.03;75253.22;4995188;28;20452;-86
2022/08/13 02:58:57;;;;;;;3.45;1.70;;;;;;;-148.88;50.13;75245.09;4993960;28;20536;-86
2022/08/13 03:01:24;;;;;;;3.78;1.88;;;;;;;-148.88;50.57;75251.19;4993895;28;20023;-85
2022/08/13 03:03:50;;;;;;;3.15;1.90;;;;;;;-148.88;50.71;75255.25;4993748;28;20104;-86
2022/08/13 03:06:19;;;;;;;3.65;1.90;;;;;;;-148.88;50.60;75259.31;4994630;28;20330;-86
2022/08/13 03:08:46;;;;;;;4.72;1.95;;;;;;;-148.88;50.94;75269.47;4994082;28;20050;-86
2022/08/13 03:11:11;;;;;;;3.22;2.00;;;;;;;-148.88;51.34;75269.47;4993452;28;20030;-86
2022/08/13 03:13:42;;;;;;;2.58;1.92;;;;;;;-148.88;51.04;75265.41;4994296;28;20027;-86
2022/08/13 03:16:09;;;;;;;2.70;1.83;;;;;;;-148.88;50.94;75267.44;4993634;28;20508;-86
2022/08/13 03:18:34;;;;;;;4.78;2.10;;;;;;;-148.88;51.19;75273.53;4994688;28;20030;-86
2022/08/13 03:21:00;;;;;;;2.70;1.60;;;;;;;-148.88;51.07;75273.53;4993358;28;20030;-86
2022/08/13 03:23:27;;;;;;;2.78;1.50;;;;;;;-148.88;51.97;75279.59;4993465;28;20030;-86
2022/08/13 03:25:53;;;;;;;2.17;1.60;;;;;;;-148.88;51.53;75277.59;4993180;28;20493;-86
2022/08/13 03:28:18;;;;;;;4.78;1.73;;;;;;;-148.88;51.24;75285.69;4994430;28;20030;-86
2022/08/13 03:30:44;;;;;;;2.58;1.50;;;;;;;-148.88;51.54;75283.66;4993207;28;20030;-86
2022/08/13 03:33:12;;;;;;;5.30;1.80;;;;;;;-148.88;51.50;75287.72;4994697;28;20034;-86
2022/08/13 03:35:37;;;;;;;2.95;1.70;;;;;;;-148.88;51.60;75283.66;4994486;28;20022;-86
2022/08/13 03:38:05;;;;;;;3.42;1.67;;;;;;;-148.88;52.16;75295.84;4994541;28;20032;-86
2022/08/13 03:43:16;;;;;;;4.35;1.90;;;;;;;-148.88;53.33;75326.31;4994769;28;20046;-87
2022/08/13 03:45:44;;;;;;;5.07;2.30;;;;;;;-148.88;54.02;75358.81;4993138;28;20033;-86
2022/08/13 03:48:12;;;;;;;4.25;2.13;;;;;;;-148.88;54.73;75364.91;4992948;28;20033;-86
2022/08/13 03:50:38;;;;;;;3.42;2.10;;;;;;;-148.88;54.93;75385.22;4992883;28;20113;-86
2022/08/13 03:53:04;;;;;;;3.53;2.13;;;;;;;-148.88;54.70;75383.19;4993949;28;20516;-86
2022/08/13 03:55:33;;;;;;;3.58;1.70;;;;;;;-148.88;54.67;75373.03;4994116;28;20030;-86
2022/08/13 03:58:00;;;;;;;3.85;2.03;;;;;;;-148.88;53.94;75350.69;4992850;28;20044;-86
2022/08/13 04:00:29;;;;;;;5.53;1.95;;;;;;;-148.88;53.77;75346.63;4993101;28;20033;-89
2022/08/13 04:02:55;;;;;;;4.43;1.85;;;;;;;-148.88;53.84;75344.59;4993092;28;20049;-85
2022/08/13 04:05:22;;;;;;;3.05;2.17;;;;;;;-148.88;54.12;75348.66;4994127;28;20385;-87
2022/08/13 04:07:50;;;;;;;7.05;2.05;;;;;;;-148.88;53.99;75346.63;4993087;28;20473;-85
2022/08/13 04:10:17;;;;;;;3.30;2.20;;;;;;;-148.88;54.43;75354.75;4992638;28;20109;-88
2022/08/13 04:12:43;;;;;;;4.07;2.17;;;;;;;-148.88;55.67;75387.25;4992856;28;20493;-86
2022/08/13 04:15:09;;;;;;;3.67;2.03;;;;;;;-148.88;55.82;75391.31;4994522;28;20473;-85
2022/08/13 04:17:36;;;;;;;2.75;1.90;;;;;;;-148.88;56.12;75393.34;4993027;28;20109;-85
2022/08/13 04:20:04;;;;;;;3.55;2.25;;;;;;;-148.88;56.29;75395.38;4993122;28;20472;-86
2022/08/13 04:22:29;;;;;;;3.83;2.20;;;;;;;-148.88;56.12;75391.31;4995120;28;20026;-87
2022/08/13 04:24:56;;;;;;;4.45;2.28;;;;;;;-148.88;56.17;75383.19;4993182;28;20039;-85
2022/08/13 04:27:22;;;;;;;3.33;1.85;;;;;;;-148.88;56.07;75377.09;4993875;28;20026;-85
2022/08/13 04:29:51;;;;;;;4.30;2.30;;;;;;;-148.88;56.05;75375.06;4992103;28;20464;-85
2022/08/13 04:32:21;;;;;;;4.55;2.13;;;;;;;-148.88;56.61;75366.94;4976614;28;20030;-85
2022/08/13 04:34:46;;;;;;;4.10;2.00;;;;;;;-148.88;56.08;75368.97;4992770;28;20026;-84
2022/08/13 04:37:12;;;;;;;3.42;2.38;;;;;;;-148.88;56.25;75379.13;4992421;28;20448;-84
2022/08/13 04:39:37;;;;;;;3.53;2.10;;;;;;;-148.88;56.54;75375.06;4993141;28;20515;-86
2022/08/13 04:42:03;;;;;;;5.22;2.20;;;;;;;-148.88;56.74;75371.00;4992958;28;20026;-85
2022/08/13 04:44:28;;;;;;;4.47;2.28;;;;;;;-148.88;56.73;75371.00;4992247;28;20022;-87
2022/08/13 04:46:55;;;;;;;5.47;2.00;;;;;;;-148.88;57.49;75366.94;4992560;28;20061;-86
2022/08/13 04:49:20;;;;;;;3.17;2.08;;;;;;;-148.88;57.43;75373.03;4992169;28;20104;-84
2022/08/13 04:51:45;;;;;;;3.33;2.30;;;;;;;-148.88;58.18;75371.00;4992334;28;20066;-87
2022/08/13 04:54:11;;;;;;;4.97;2.08;;;;;;;-148.88;58.27;75364.91;4992248;28;20134;-87
2022/08/13 04:56:36;;;;;;;3.60;2.20;;;;;;;-148.88;58.12;75366.94;4993786;28;20030;-85
2022/08/13 04:59:03;;;;;;;3.40;2.38;;;;;;;-148.88;58.39;75366.94;4992256;28;20054;-84
2022/08/13 05:01:29;;;;;;;3.30;2.20;;;;;;;-148.88;58.66;75366.94;4992358;28;20030;-86
2022/08/13 05:03:55;;;;;;;6.38;2.45;;;;;;;-148.88;58.62;75366.94;4992088;28;20030;-84
2022/08/13 05:06:21;;;;;;;5.20;2.55;;;;;;;-148.88;58.69;75362.88;4992093;28;20030;-84
2022/08/13 05:08:47;;;;;;;2.50;2.00;;;;;;;-148.88;58.34;75354.75;4992047;28;20129;-85
2022/08/13 05:11:13;;;;;;;4.53;2.25;;;;;;;-148.88;58.49;75352.72;4992912;28;20026;-84
2022/08/13 05:13:40;;;;;;;3.13;2.30;;;;;;;-148.88;58.60;75344.59;4995849;28;20081;-84
2022/08/13 05:16:14;;;;;;;5.68;2.28;;;;;;;-148.88;58.42;75346.63;4996015;28;20029;-83
2022/08/13 05:18:45;;;;;;;3.75;2.50;;;;;;;-148.88;58.40;75356.78;4997372;28;20549;-83
2022/08/13 05:21:11;;;;;;;4.18;2.10;;;;;;;-148.88;58.91;75346.63;4998878;28;20093;-82
2022/08/13 05:23:39;;;;;;;3.05;2.08;;;;;;;-148.88;59.11;75346.63;4997584;28;20197;-84
2022/08/13 05:26:06;;;;;;;3.75;2.40;;;;;;;-148.88;59.60;75338.50;4998705;28;20022;-83
2022/08/13 05:28:32;;;;;;;7.57;2.53;;;;;;;-148.88;59.71;75338.50;4998040;28;20026;-86
2022/08/13 05:30:58;;;;;;;3.70;2.60;;;;;;;-148.88;59.99;75338.50;4996392;28;20450;-83
2022/08/13 05:33:26;;;;;;;3.47;2.10;;;;;;;-148.88;60.22;75336.47;4997699;28;20045;-84
2022/08/13 05:35:55;;;;;;;6.60;2.42;;;;;;;-148.88;60.21;75328.34;4999900;28;20034;-82
2022/08/13 05:38:22;;;;;;;3.08;2.30;;;;;;;-148.88;60.28;75330.38;4997474;28;20144;-84
2022/08/13 05:40:49;;;;;;;4.22;2.42;;;;;;;-148.88;61.01;75326.31;4999379;28;20107;-85
2022/08/13 05:43:16;;;;;;;4.00;2.28;;;;;;;-148.88;60.66;75318.19;4996987;28;20068;-85
2022/08/13 05:45:43;;;;;;;6.07;2.80;;;;;;;-148.88;60.03;75318.19;4996894;28;20022;-84
2022/08/13 05:48:09;;;;;;;3.47;2.25;;;;;;;-148.88;59.53;75310.06;4996776;28;20469;-84
2022/08/13 05:50:35;;;;;;;3.53;2.30;;;;;;;-148.88;59.22;75310.06;4996641;28;20102;-84
2022/08/13 05:53:08;;;;;;;5.70;2.45;;;;;;;-148.88;58.20;75306.00;4997053;28;20025;-84
2022/08/13 05:55:40;;;;;;;;;;;;;;;-148.88;59.08;75303.97;4998984;28;20061;-84
2022/08/13 05:58:08;;;;;;;5.88;2.40;;;;;;;-148.88;58.90;75285.69;4997350;28;19913;-84
2022/08/13 06:03:27;;;;;;;3.88;2.45;;;;;;;-148.88;58.34;75271.50;4998189;28;20053;-84
2022/08/13 06:06:06;;;;;;;3.50;2.33;;;;;;;-148.88;56.48;75267.44;4996918;28;20038;-84
2022/08/13 06:08:35;;;;;;;5.97;2.90;;;;;;;-148.88;56.53;75253.22;4997083;28;20113;-83
2022/08/13 06:11:19;;;;;;;4.40;2.60;;;;;;;-148.88;57.74;75243.06;4996784;28;20061;-84
2022/08/13 06:13:48;;;;;;;4.25;2.35;;;;;;;-148.88;58.21;75232.91;4997967;28;20026;-84
2022/08/13 06:16:17;;;;;;;3.10;2.10;;;;;;;-148.88;57.98;75224.78;4996872;28;20580;-84
2022/08/13 06:18:44;;;;;;;2.42;1.75;;;;;;;-148.88;57.42;75220.72;4996640;28;20042;-84
2022/08/13 06:21:12;;;;;;;4.68;2.08;;;;;;;-148.88;57.08;75212.59;4995472;28;20083;-83
2022/08/13 06:23:40;;;;;;;4.60;2.20;;;;;;;-148.88;56.90;75212.59;4993970;28;20026;-83
2022/08/13 06:26:07;;;;;;;3.90;2.10;;;;;;;-148.88;56.80;75198.38;4996665;28;20389;-84
2022/08/13 06:28:34;;;;;;;5.70;1.90;;;;;;;-148.88;56.70;75186.19;4996642;28;20105;-83
2022/08/13 06:31:06;;;;;;;4.47;2.00;;;;;;;-148.88;56.48;75176.03;4995197;28;20393;-83
2022/08/13 06:33:34;;;;;;;4.82;2.35;;;;;;;-148.88;55.97;75171.97;4995326;28;20026;-83
2022/08/13 06:36:04;;;;;;;3.65;1.90;;;;;;;-148.88;55.77;75163.84;4996525;28;20022;-84
2022/08/13 06:38:33;;;;;;;4.68;2.00;;;;;;;-148.88;55.15;75143.53;4995153;28;20022;-84
2022/08/13 06:40:59;;;;;;;3.78;2.45;;;;;;;-148.88;54.28;75139.47;4995019;28;20042;-83
2022/08/13 06:43:26;;;;;;;5.70;2.00;;;;;;;-148.88;54.38;75127.28;4995033;28;20031;-84
2022/08/13 06:45:52;;;;;;;4.88;2.28;;;;;;;-148.88;53.86;75119.16;4995018;28;20084;-84
2022/08/13 06:48:17;;;;;;;4.18;2.03;;;;;;;-148.88;55.22;75109.00;4995133;28;20030;-86
2022/08/13 06:50:42;;;;;;;6.57;2.50;;;;;;;-148.88;56.17;75102.91;4995355;28;20037;-84
2022/08/13 06:53:09;;;;;;;4.78;2.50;;;;;;;-148.88;54.43;75092.78;4995301;28;20041;-84
2022/08/13 06:55:36;;;;;;;3.58;2.10;;;;;;;-148.88;54.58;75086.69;4995477;28;20018;-84
2022/08/13 06:58:08;;;;;;;4.78;2.00;;;;;;;-148.88;53.40;75070.44;4996400;28;20520;-84
2022/08/13 07:00:38;;;;;;;3.58;1.77;;;;;;;-148.88;52.59;75054.19;4996503;28;20077;-83
2022/08/13 07:03:04;;;;;;;4.50;1.92;;;;;;;-148.88;52.06;75037.94;4994711;28;20397;-83
2022/08/13 07:05:38;;;;;;;3.65;1.85;;;;;;;-148.88;52.08;75013.56;4994521;28;20393;-84
2022/08/13 07:08:06;;;;;;;7.05;1.73;;;;;;;-148.88;52.50;75013.56;4994631;28;20493;-83
2022/08/13 07:10:33;;;;;;;3.33;1.92;;;;;;;-148.88;51.88;75001.38;4994659;28;20081;-84
2022/08/13 07:13:00;;;;;;;4.60;2.00;;;;;;;-148.88;51.78;74989.19;4994434;28;20049;-84
2022/08/13 07:15:25;;;;;;;3.25;1.98;;;;;;;-148.88;51.02;74968.88;4996521;28;20050;-84
2022/08/13 07:17:51;;;;;;;2.38;1.60;;;;;;;-148.88;50.34;74944.53;4996154;28;20546;-84
2022/08/13 07:20:17;;;;;;;5.20;2.00;;;;;;;-148.88;49.07;74934.38;4994646;28;20033;-84
2022/08/13 07:22:43;;;;;;;3.25;1.70;;;;;;;-148.88;49.35;74916.09;4995454;28;20113;-84
2022/08/13 07:25:10;;;;;;;5.15;2.50;;;;;;;-148.88;50.19;74916.09;4994714;28;20385;-85
2022/08/13 07:27:38;;;;;;;5.43;2.10;;;;;;;-148.88;49.79;74903.91;4996089;28;20030;-84
2022/08/13 07:30:05;;;;;;;6.18;2.00;;;;;;;-148.88;49.20;74883.59;4994673;28;20078;-84
2022/08/13 07:32:36;;;;;;;3.53;2.10;;;;;;;-148.88;48.46;74869.38;4994087;28;20027;-84
2022/08/13 07:35:02;;;;;;;4.68;1.98;;;;;;;-148.88;48.80;74861.25;4995694;28;20069;-84
2022/08/13 07:37:27;;;;;;;5.78;2.50;;;;;;;-148.88;48.78;74830.78;4994161;28;20128;-84
2022/08/13 07:39:53;;;;;;;5.53;1.98;;;;;;;-148.88;49.01;74834.84;4997254;28;20475;-84
2022/08/13 07:42:21;;;;;;;4.07;1.98;;;;;;;-148.88;48.67;74824.69;4995589;28;20034;-84
2022/08/13 07:44:52;;;;;;;3.90;2.10;;;;;;;-148.88;47.85;74810.50;4994018;28;20022;-84
2022/08/13 07:47:19;;;;;;;3.72;2.33;;;;;;;-148.88;48.40;74812.53;4995472;28;20029;-85
2022/08/13 07:49:46;;;;;;;4.60;2.10;;;;;;;-148.88;46.11;74790.19;4994068;28;20101;-86
2022/08/13 07:52:13;;;;;;;5.50;1.80;;;;;;;-148.88;46.32;74788.16;4994830;28;20018;-84
2022/08/13 07:54:39;;;;;;;2.70;1.60;;;;;;;-148.88;46.05;74755.66;4993604;28;20018;-82
2022/08/13 07:57:05;;;;;;;7.32;2.05;;;;;;;-148.88;46.48;74729.25;4994524;28;20106;-85
2022/08/13 07:59:31;;;;;;;4.00;1.90;;;;;;;-148.88;47.73;74731.28;4994413;28;20113;-84
2022/08/13 08:01:57;;;;;;;3.75;1.95;;;;;;;-148.88;46.73;74696.78;4995774;28;20026;-84
2022/08/13 08:04:24;;;;;;;4.15;2.00;;;;;;;-148.88;45.79;74682.56;4993780;28;20022;-84
2022/08/13 08:06:50;;;;;;;2.95;2.00;;;;;;;-148.88;45.59;74652.09;4994256;28;20022;-85
2022/08/13 08:09:20;;;;;;;3.42;1.92;;;;;;;-148.88;45.77;74643.97;4993832;28;20057;-85
2022/08/13 08:14:30;;;;;;;3.97;2.13;;;;;;;-148.88;46.71;74623.66;4995012;28;20072;-82
2022/08/13 08:16:59;;;;;;;2.80;1.92;;;;;;;-148.88;44.44;74597.25;4994448;28;20022;-84
2022/08/13 08:19:25;;;;;;;5.75;2.10;;;;;;;-148.88;46.14;74587.13;4994291;28;20027;-83
2022/08/13 08:21:51;;;;;;;6.65;2.35;;;;;;;-148.88;44.00;74570.88;4993912;28;20397;-83
2022/08/13 08:24:16;;;;;;;4.47;1.70;;;;;;;-148.88;43.40;74552.59;4994351;28;20057;-86
2022/08/13 08:26:46;;;;;;;2.70;1.75;;;;;;;-148.88;43.97;74526.19;4993934;28;20027;-86
2022/08/13 08:29:12;;;;;;;5.82;1.92;;;;;;;-148.88;41.78;74505.88;4993723;28;20030;-84
2022/08/13 08:31:41;;;;;;;2.63;1.80;;;;;;;-148.88;42.38;74493.72;4993984;28;20434;-86
2022/08/13 08:34:07;;;;;;;4.47;2.20;;;;;;;-148.88;42.38;74489.66;4994405;28;20050;-84
2022/08/13 08:36:37;;;;;;;4.28;2.13;;;;;;;-148.88;41.17;74440.91;4994062;28;20392;-84
2022/08/13 08:44:38;;;;;;;4.75;2.03;;;;;;;-148.88;41.92;74408.44;4994137;28;20465;-82
2022/08/13 08:47:05;;;;;;;4.47;1.90;;;;;;;-148.88;41.20;74392.19;4996274;28;20509;-84
2022/08/13 08:49:30;;;;;;;4.78;2.72;;;;;;;-148.88;39.83;74349.53;4997238;28;20026;-82
2022/08/13 08:51:57;;;;;;;2.50;1.83;;;;;;;-148.88;38.42;74339.38;4996863;28;20045;-85
2022/08/13 08:54:23;;;;;;;6.30;2.70;;;;;;;-148.88;40.60;74333.28;4997327;28;20105;-85
2022/08/13 08:56:54;;;;;;;3.13;2.05;;;;;;;-148.88;39.48;74306.91;4997172;28;20145;-85
2022/08/13 08:59:21;;;;;;;4.63;2.13;;;;;;;-148.88;38.79;74294.72;4999201;28;20026;-84
2022/08/13 09:01:46;;;;;;;3.63;2.03;;;;;;;-148.88;39.49;74290.66;4997692;28;20477;-84
2022/08/13 09:04:13;;;;;;;2.95;1.90;;;;;;;-148.88;39.13;74278.47;4996780;28;20033;-83
2022/08/13 09:06:40;;;;;;;4.03;2.40;;;;;;;-148.88;39.18;74235.84;4996704;28;20511;-83
2022/08/13 09:09:08;;;;;;;4.43;2.25;;;;;;;-148.88;37.48;74211.47;4997028;28;20023;-84
2022/08/13 09:11:36;;;;;;;6.00;2.22;;;;;;;-148.88;37.48;74197.25;4997292;28;20457;-84
2022/08/13 09:14:05;;;;;;;2.50;2.20;;;;;;;-148.88;38.10;74154.63;5001897;28;20026;-82
2022/08/13 09:16:32;;;;;;;5.22;2.80;;;;;;;-148.88;35.95;74099.78;4997500;28;20053;-82
2022/08/13 09:18:58;;;;;;;3.92;2.58;;;;;;;-148.88;36.03;74077.47;4996598;28;20031;-86
2022/08/13 09:21:25;;;;;;;4.60;2.20;;;;;;;-148.88;35.52;74075.44;4996714;28;20030;-84
2022/08/13 09:23:52;;;;;;;5.60;2.38;;;;;;;-148.88;35.32;74044.97;4997324;28;20026;-85
2022/08/13 09:26:18;;;;;;;5.53;2.30;;;;;;;-148.88;35.66;73994.22;4997252;28;20030;-84
2022/08/13 09:28:50;;;;;;;5.28;2.38;;;;;;;-148.88;34.92;73996.25;4998719;28;20036;-86
2022/08/13 09:31:16;;;;;;;3.63;2.13;;;;;;;-148.88;34.21;73977.97;4998961;28;20022;-85
2022/08/13 09:33:41;;;;;;;4.45;2.40;;;;;;;-148.88;34.19;73961.72;4999913;28;20108;-87
2022/08/13 09:36:09;;;;;;;4.85;2.45;;;;;;;-148.88;33.56;73961.72;4999667;28;20022;-87
2022/08/13 09:38:36;;;;;;;3.40;2.20;;;;;;;-148.88;34.40;73925.19;5006243;28;20097;-86
2022/08/13 09:41:17;;;;;;;5.28;2.50;;;;;;;-148.88;33.63;73943.47;4996516;28;20113;-85
2022/08/13 09:43:44;;;;;;;4.57;2.75;;;;;;;-148.88;34.28;73919.09;4995614;28;20401;-87
2022/08/13 09:46:10;;;;;;;4.13;2.38;;;;;;;-148.88;34.53;73896.75;4998562;28;20026;-86
2022/08/13 09:48:37;;;;;;;4.05;2.90;;;;;;;-148.88;33.39;73892.72;4997352;28;20022;-86
2022/08/13 09:51:03;;;;;;;6.38;2.63;;;;;;;-148.88;33.41;73862.25;4995720;28;20117;-85
2022/08/13 09:53:28;;;;;;;5.85;3.10;;;;;;;-148.88;33.13;73846.00;4996620;28;20093;-87
2022/08/13 09:55:55;;;;;;;4.35;2.28;;;;;;;-148.88;33.46;73827.75;4995869;28;20018;-85
2022/08/13 09:58:22;;;;;;;4.45;2.75;;;;;;;-148.88;32.61;73827.75;4997068;28;20025;-85
2022/08/13 10:00:48;;;;;;;3.17;2.50;;;;;;;-148.88;32.61;73791.19;4997206;28;20496;-85
2022/08/13 10:03:17;;;;;;;4.38;2.58;;;;;;;-148.88;31.52;73787.13;4995511;28;20030;-85
2022/08/13 10:05:43;;;;;;;4.32;3.03;;;;;;;-148.88;31.04;73785.09;4997277;28;20081;-85
2022/08/13 10:08:16;;;;;;;4.32;2.70;;;;;;;-148.88;32.56;73795.25;4996367;28;20026;-87
2022/08/13 10:10:42;;;;;;;;;;;;;;;-148.88;32.84;73795.25;4997544;28;20022;-85
2022/08/13 10:13:07;;;;;;;6.45;2.75;;;;;;;-148.88;32.61;73872.41;4998514;28;20266;-87
2022/08/13 10:15:34;;;;;;;7.05;3.03;;;;;;;-148.88;33.50;73888.66;4997694;28;20029;-86
2022/08/13 10:18:04;;;;;;;3.80;2.80;;;;;;;-148.88;32.28;73799.31;4997611;28;20026;-87
2022/08/13 10:20:33;;;;;;;4.40;2.90;;;;;;;-148.88;32.67;73746.53;4998271;28;20026;-86
2022/08/13 10:23:00;;;;;;;3.55;2.67;;;;;;;-148.88;32.30;73738.41;4996579;28;20108;-87
2022/08/13 10:25:27;;;;;;;4.28;3.15;;;;;;;-148.88;32.21;73730.28;4995566;28;20436;-85
2022/08/13 10:27:53;;;;;;;4.75;3.03;;;;;;;-148.88;32.03;73758.72;4995914;28;20508;-86
2022/08/13 10:30:22;;;;;;;4.55;2.80;;;;;;;-148.88;32.23;73793.22;4995796;28;20050;-86
2022/08/13 10:32:47;;;;;;;5.05;2.90;;;;;;;-148.88;32.20;73781.03;4996530;28;20104;-89
2022/08/13 10:35:12;;;;;;;6.63;2.83;;;;;;;-148.88;33.01;73766.84;4996370;28;20413;-88
2022/08/13 10:37:45;;;;;;;4.93;3.25;;;;;;;-148.88;32.10;73730.28;4995485;28;20026;-85
2022/08/13 10:40:14;;;;;;;7.22;3.45;;;;;;;-148.88;32.11;73701.88;4996922;28;20026;-87
2022/08/13 10:42:41;;;;;;;5.07;3.10;;;;;;;-148.88;32.14;73638.94;4996143;28;20045;-87
2022/08/13 10:45:06;;;;;;;5.38;3.00;;;;;;;-148.88;31.40;73634.88;4996255;28;20026;-86
2022/08/13 10:47:32;;;;;;;6.78;3.40;;;;;;;-148.88;30.81;73622.69;4995066;28;20026;-85
2022/08/13 10:49:58;;;;;;;6.63;3.58;;;;;;;-148.88;30.90;73559.75;4995240;28;20114;-86
2022/08/13 10:52:24;;;;;;;4.45;3.67;;;;;;;-148.88;30.27;73600.34;4994843;28;20022;-87
2022/08/13 10:54:49;;;;;;;5.40;3.60;;;;;;;-148.88;30.69;73685.63;4994801;28;20026;-85
2022/08/13 10:57:15;;;;;;;5.45;3.30;;;;;;;-148.88;31.54;73707.97;4994643;28;20030;-86
2022/08/13 10:59:41;;;;;;;5.47;3.47;;;;;;;-148.88;31.06;73679.53;4995670;28;20030;-86
2022/08/13 11:02:07;;;;;;;6.18;3.35;;;;;;;-148.88;31.02;73620.66;4994523;28;20057;-86
2022/08/13 11:04:37;;;;;;;4.63;3.50;;;;;;;-148.88;31.54;73663.28;4994302;28;20050;-84
2022/08/13 11:07:03;;;;;;;5.90;3.05;;;;;;;-148.88;31.48;73681.56;4995389;28;20048;-86
2022/08/13 11:09:29;;;;;;;8.75;3.58;;;;;;;-148.88;32.74;73592.25;4995183;28;20153;-86
2022/08/13 11:11:57;;;;;;;5.45;3.67;;;;;;;-148.88;30.92;73531.34;4994088;28;20066;-87
2022/08/13 11:14:23;;;;;;;6.00;3.42;;;;;;;-148.88;30.65;73628.78;4994141;28;20018;-87
2022/08/13 11:19:14;;;;;;;5.90;3.80;;;;;;;-148.88;31.48;73606.44;4995420;28;20112;-89
2022/08/13 11:21:44;;;;;;;5.70;3.60;;;;;;;-148.88;30.95;73616.59;4995323;28;20032;-88
2022/08/13 11:24:10;;;;;;;5.53;3.17;;;;;;;-148.88;31.54;73551.63;4995080;28;20033;-85
2022/08/13 11:26:36;;;;;;;3.72;3.30;;;;;;;-148.88;30.25;73470.44;4993999;28;20049;-88
2022/08/13 11:29:01;;;;;;;4.05;3.65;;;;;;;-148.88;30.10;73515.09;4993907;28;20065;-89
2022/08/13 11:31:26;;;;;;;5.82;3.70;;;;;;;-148.88;30.47;73482.63;4994794;28;20032;-89
2022/08/13 11:33:51;;;;;;;4.95;3.80;;;;;;;-148.88;30.73;73450.13;4996034;28;20125;-86
2022/08/13 11:36:17;;;;;;;6.03;3.93;;;;;;;-148.88;31.66;73411.56;4996235;28;20551;-88
2022/08/13 11:38:42;;;;;;;7.72;5.60;;;;;;;-148.88;29.95;73397.34;4995654;28;20319;-87
2022/08/13 11:41:08;;;;;;;4.45;3.72;;;;;;;-148.88;28.77;73433.91;4994605;28;20424;-88
2022/08/13 11:43:33;;;;;;;6.00;3.83;;;;;;;-148.88;27.96;73474.50;4995601;28;20030;-87
2022/08/13 11:45:59;;;;;;;4.45;3.92;;;;;;;-148.88;28.06;73423.75;4994958;28;20033;-88